Search for airport 
image banner adimage banner adimage banner ad
image banner ad

PA92 - Blue Mountain Academy (Pvt)

Located in Hamburg, United States

ICAO - PA92, IATA -

Data provided by Airmate  

General information

Coordinates: N40°33'10" W76°1'44"
Elevation is 531 feet MSL.
Magnetic variation is -11° East
View others Airports in Pennsylvania

Operational data

Special qualification required
Current time UTC:
Current local time:
METAR: KRDG 182354Z 24004KT 10SM CLR 24/06 A3024 RMK AO2 SLP242 T02440061 10283 20244 55005
TAF: KRDG 182320Z 1900/1924 26006KT P6SM SKC FM190200 VRB03KT P6SM SKC FM191900 29005KT P6SM SKC
View NOTAMs / SUP AIP / TFR affecting this airport [VIEW]
Communications frequencies: [VIEW]

Runways:

RWY identifierQFULength (ft)Width (ft)SurfaceLDA (ft)
082730100GRASS
262730100GRASS

Airport contact information

Address: Hamburg United States

Satellite view of PA92